Time;durP1;ratioP1;P1;durP2;ratioP2;P2;SDS_P1;SDS_P2;PMS_P1;PMS_P2;Temp;Humidity;BMP_temperature;BMP_pressure;BME280_temperature;BME280_humidity;BME280_pressure;Samples;Min_cycle;Max_cycle;Signal;HPM_P1;HPM_P2
2021/04/10 00:01:41;;;;;;;7.93;3.90;;;2.60;99.90;;;;;;5012661;28;20060;-82
2021/04/10 00:04:10;;;;;;;7.95;3.80;;;2.70;99.90;;;;;;5012263;28;20057;-84
2021/04/10 00:06:36;;;;;;;7.65;3.70;;;2.80;99.90;;;;;;5012429;28;20483;-82
2021/04/10 00:09:05;;;;;;;5.78;3.67;;;2.90;99.90;;;;;;5013485;28;20057;-82
2021/04/10 00:11:33;;;;;;;6.03;4.00;;;2.90;99.90;;;;;;5012326;28;20054;-83
2021/04/10 00:14:00;;;;;;;7.18;3.72;;;2.80;99.90;;;;;;5013387;28;20060;-84
2021/04/10 00:16:27;;;;;;;4.45;3.63;;;3.00;99.90;;;;;;5013419;28;20081;-84
2021/04/10 00:18:53;;;;;;;7.03;4.32;;;3.00;99.90;;;;;;5012064;28;20129;-84
2021/04/10 00:21:19;;;;;;;5.55;4.18;;;3.10;99.90;;;;;;5013222;28;20088;-84
2021/04/10 00:23:46;;;;;;;7.03;3.65;;;3.20;99.90;;;;;;5013424;28;20046;-84
2021/04/10 00:26:13;;;;;;;5.57;3.53;;;3.30;99.90;;;;;;5012085;28;20054;-84
2021/04/10 00:28:40;;;;;;;4.68;3.65;;;3.30;99.90;;;;;;5013158;28;20050;-82
2021/04/10 00:31:07;;;;;;;6.20;3.42;;;3.30;99.90;;;;;;5011978;28;20132;-82
2021/04/10 00:33:38;;;;;;;4.63;3.33;;;3.30;99.90;;;;;;5012880;28;20050;-83
2021/04/10 00:36:08;;;;;;;4.35;3.63;;;3.30;99.90;;;;;;5013122;28;20046;-84
2021/04/10 00:38:36;;;;;;;5.55;3.72;;;3.40;99.90;;;;;;5012054;28;20490;-82
2021/04/10 00:41:13;;;;;;;6.55;3.00;;;3.40;99.90;;;;;;5011985;28;20137;-82
2021/04/10 00:43:39;;;;;;;4.40;3.50;;;3.40;99.90;;;;;;5013024;28;20133;-84
2021/04/10 00:46:06;;;;;;;11.13;4.20;;;3.50;99.90;;;;;;5011618;28;20144;-84
2021/04/10 00:48:33;;;;;;;5.38;4.22;;;3.60;99.90;;;;;;5011841;28;20088;-84
2021/04/10 00:51:00;;;;;;;5.00;3.67;;;3.60;99.90;;;;;;5012958;28;20506;-84
2021/04/10 00:53:27;;;;;;;12.07;4.43;;;3.70;99.90;;;;;;5011677;28;20085;-84
2021/04/10 00:55:59;;;;;;;6.22;3.92;;;3.70;99.90;;;;;;5011749;28;20442;-84
2021/04/10 00:58:26;;;;;;;8.38;3.92;;;3.80;99.90;;;;;;5012607;28;20414;-84
2021/04/10 01:00:52;;;;;;;6.55;3.80;;;3.80;99.90;;;;;;5012639;28;20573;-85
2021/04/10 01:03:18;;;;;;;7.55;3.97;;;3.80;99.90;;;;;;5012849;28;20133;-84
2021/04/10 01:05:44;;;;;;;13.50;3.88;;;3.80;99.90;;;;;;5011611;28;20078;-84
2021/04/10 01:08:11;;;;;;;7.25;3.88;;;3.90;99.90;;;;;;5012617;28;20085;-84
2021/04/10 01:10:37;;;;;;;6.95;3.92;;;3.90;99.90;;;;;;5012777;28;20428;-84
2021/04/10 01:13:24;;;;;;;5.25;3.25;;;3.90;99.90;;;;;;5014992;28;20056;-84
2021/04/10 01:16:07;;;;;;;9.68;3.88;;;4.00;99.90;;;;;;5016840;28;20136;-84
2021/04/10 01:19:05;;;;;;;5.68;3.20;;;4.10;99.90;;;;;;5016833;28;20046;-84
2021/04/10 01:21:43;;;;;;;7.47;3.50;;;4.00;99.90;;;;;;5015392;28;20052;-84
2021/04/10 01:24:28;;;;;;;9.43;3.92;;;4.00;99.90;;;;;;5016557;28;20077;-84
2021/04/10 01:27:03;;;;;;;7.90;3.60;;;3.90;99.90;;;;;;5016718;28;20435;-84
2021/04/10 01:29:35;;;;;;;6.10;3.47;;;3.90;99.90;;;;;;5016524;28;20056;-84
2021/04/10 01:32:03;;;;;;;4.83;3.63;;;3.80;99.90;;;;;;5015085;28;20050;-84
2021/04/10 01:34:34;;;;;;;6.28;3.90;;;3.90;99.90;;;;;;5015279;28;20704;-84
2021/04/10 01:37:12;;;;;;;6.97;3.75;;;3.90;99.90;;;;;;5015084;28;20473;-84
2021/04/10 01:39:40;;;;;;;7.50;4.00;;;3.90;99.90;;;;;;5016551;28;20050;-84
2021/04/10 01:42:09;;;;;;;6.07;3.50;;;3.80;99.90;;;;;;5016078;28;20057;-84
2021/04/10 01:44:38;;;;;;;6.55;3.53;;;3.90;99.90;;;;;;5016425;28;20045;-84
2021/04/10 01:47:08;;;;;;;8.55;3.67;;;3.80;99.90;;;;;;5015098;28;20124;-84
2021/04/10 01:49:34;;;;;;;7.10;3.50;;;3.80;99.90;;;;;;5016451;28;20042;-84
2021/04/10 01:52:03;;;;;;;7.93;3.70;;;3.80;99.90;;;;;;5015931;28;20053;-84
2021/04/10 01:54:32;;;;;;;4.32;3.38;;;3.80;99.90;;;;;;5016057;28;20073;-82
2021/04/10 01:56:58;;;;;;;6.03;3.80;;;3.80;99.90;;;;;;5015807;28;20141;-83
2021/04/10 01:59:25;;;;;;;4.32;3.03;;;3.80;99.90;;;;;;5014825;28;20050;-84
2021/04/10 02:01:53;;;;;;;6.20;3.60;;;3.90;99.90;;;;;;5014825;28;20049;-84
2021/04/10 02:04:20;;;;;;;8.20;3.83;;;3.90;99.90;;;;;;5015083;28;20112;-84
2021/04/10 02:06:48;;;;;;;5.57;3.75;;;3.90;99.90;;;;;;5015956;28;20553;-84
2021/04/10 02:09:16;;;;;;;8.18;3.50;;;3.90;99.90;;;;;;5016130;28;20104;-84
2021/04/10 02:11:46;;;;;;;4.88;3.47;;;3.90;99.90;;;;;;5015961;28;20077;-84
2021/04/10 02:14:14;;;;;;;6.80;3.42;;;3.90;99.90;;;;;;5016007;28;20060;-84
2021/04/10 02:16:41;;;;;;;8.30;3.28;;;3.90;99.90;;;;;;5014888;28;20054;-84
2021/04/10 02:19:08;;;;;;;5.90;3.35;;;4.00;99.90;;;;;;5015849;28;20057;-84
2021/04/10 02:21:39;;;;;;;5.57;3.33;;;4.00;99.90;;;;;;5015855;28;20130;-84
2021/04/10 02:24:10;;;;;;;8.65;3.90;;;4.00;99.90;;;;;;5014519;28;20483;-84
2021/04/10 02:26:37;;;;;;;5.75;3.03;;;4.00;99.90;;;;;;5015018;28;20050;-84
2021/04/10 02:29:04;;;;;;;9.75;3.45;;;4.00;99.90;;;;;;5014602;28;20143;-84
2021/04/10 02:31:39;;;;;;;5.97;3.45;;;4.00;99.90;;;;;;5014793;28;20043;-84
2021/04/10 02:34:12;;;;;;;9.45;4.70;;;4.00;99.90;;;;;;5015547;28;20128;-84
2021/04/10 02:36:40;;;;;;;8.40;3.80;;;4.00;99.90;;;;;;5014515;28;20129;-84
2021/04/10 02:39:09;;;;;;;5.15;3.35;;;4.10;99.90;;;;;;5015440;28;20561;-83
2021/04/10 02:41:36;;;;;;;5.85;3.42;;;4.00;99.90;;;;;;5014282;28;20133;-84
2021/04/10 02:44:06;;;;;;;6.18;3.67;;;4.00;99.90;;;;;;5014148;28;20473;-84
2021/04/10 02:46:40;;;;;;;4.07;3.38;;;4.10;99.90;;;;;;5015404;28;20477;-83
2021/04/10 02:49:12;;;;;;;7.10;3.75;;;4.00;99.90;;;;;;5015319;28;20165;-84
2021/04/10 02:51:51;;;;;;;6.20;3.22;;;4.00;99.90;;;;;;5015311;28;20570;-84
2021/04/10 02:54:20;;;;;;;4.82;3.42;;;4.00;99.90;;;;;;5014203;28;20069;-84
2021/04/10 02:56:53;;;;;;;19.00;4.30;;;4.10;99.90;;;;;;5015178;28;20122;-84
2021/04/10 02:59:20;;;;;;;5.97;3.47;;;4.10;99.90;;;;;;5015043;28;20050;-84
2021/04/10 03:01:49;;;;;;;4.78;3.15;;;4.20;99.90;;;;;;5013829;28;20053;-84
2021/04/10 03:04:15;;;;;;;6.53;3.70;;;4.10;99.90;;;;;;5015136;28;20128;-84
2021/04/10 03:06:42;;;;;;;7.65;4.38;;;4.20;99.90;;;;;;5014106;28;20108;-84
2021/04/10 03:09:10;;;;;;;7.85;3.47;;;4.20;99.90;;;;;;5014875;28;20056;-84
2021/04/10 03:11:37;;;;;;;7.43;3.90;;;4.20;99.90;;;;;;5013668;28;20512;-84
2021/04/10 03:14:05;;;;;;;5.45;3.20;;;4.20;99.90;;;;;;5013492;28;20058;-84
2021/04/10 03:16:34;;;;;;;8.00;3.40;;;4.20;99.90;;;;;;5014708;28;20081;-84
2021/04/10 03:19:00;;;;;;;4.40;3.38;;;4.30;99.90;;;;;;5013573;28;20108;-84
2021/04/10 03:21:27;;;;;;;12.80;3.63;;;4.30;99.90;;;;;;5014689;28;20129;-84
2021/04/10 03:23:54;;;;;;;6.95;3.30;;;4.30;99.90;;;;;;5013532;28;20060;-84
2021/04/10 03:26:21;;;;;;;3.83;3.45;;;4.40;99.90;;;;;;5014622;28;20133;-84
2021/04/10 03:28:49;;;;;;;3.85;2.90;;;4.50;99.90;;;;;;5013308;28;20138;-84
2021/04/10 03:31:18;;;;;;;5.47;3.42;;;4.50;99.90;;;;;;5013451;28;20054;-84
2021/04/10 03:33:44;;;;;;;5.85;3.13;;;4.50;99.90;;;;;;5013248;28;20054;-84
2021/04/10 03:36:12;;;;;;;8.27;3.55;;;4.40;99.90;;;;;;5012965;28;20046;-83
2021/04/10 03:38:40;;;;;;;6.85;3.55;;;4.20;99.90;;;;;;5014427;28;20557;-82
2021/04/10 03:41:08;;;;;;;5.28;3.78;;;4.20;99.90;;;;;;5014289;28;20085;-84
2021/04/10 03:43:34;;;;;;;7.40;3.40;;;4.20;99.90;;;;;;5013346;28;20088;-84
2021/04/10 03:46:01;;;;;;;5.68;3.17;;;4.20;99.90;;;;;;5013063;28;20081;-84
2021/04/10 03:48:31;;;;;;;5.38;3.53;;;4.10;99.90;;;;;;5013112;28;20064;-84
2021/04/10 03:50:59;;;;;;;6.15;3.38;;;4.10;99.90;;;;;;5013112;28;20120;-82
2021/04/10 03:53:25;;;;;;;7.25;4.28;;;4.20;99.90;;;;;;5013978;28;20499;-84
2021/04/10 03:55:52;;;;;;;6.25;3.67;;;4.20;99.90;;;;;;5012842;28;20042;-84
2021/04/10 03:58:18;;;;;;;5.60;3.63;;;4.30;99.90;;;;;;5012615;28;20062;-84
2021/04/10 04:00:45;;;;;;;6.75;3.90;;;4.30;99.90;;;;;;5013922;28;20081;-84
2021/04/10 04:03:11;;;;;;;5.35;3.92;;;4.30;99.90;;;;;;5012723;28;20132;-84
2021/04/10 04:05:38;;;;;;;7.55;3.92;;;4.30;99.90;;;;;;5012744;28;20483;-84
2021/04/10 04:08:04;;;;;;;8.50;4.32;;;4.30;99.90;;;;;;5013512;28;20149;-84
2021/04/10 04:10:31;;;;;;;8.70;4.28;;;4.30;99.90;;;;;;5012681;28;20048;-84
2021/04/10 04:12:57;;;;;;;9.88;4.72;;;4.30;99.90;;;;;;5012438;28;20136;-85
2021/04/10 04:15:25;;;;;;;7.85;3.88;;;4.30;99.90;;;;;;5012881;28;20078;-84
2021/04/10 04:17:51;;;;;;;6.90;3.72;;;4.20;99.90;;;;;;5013594;28;20050;-84
2021/04/10 04:20:17;;;;;;;7.88;3.95;;;4.20;99.90;;;;;;5013681;28;20100;-84
2021/04/10 04:22:43;;;;;;;4.50;3.92;;;4.20;99.90;;;;;;5012536;28;20089;-84
2021/04/10 04:25:10;;;;;;;6.50;3.67;;;4.30;99.90;;;;;;5012536;28;20073;-84
2021/04/10 04:27:37;;;;;;;5.78;3.83;;;4.20;99.90;;;;;;5012509;28;20132;-84
2021/04/10 04:30:05;;;;;;;7.45;3.72;;;4.10;99.90;;;;;;5012296;28;20555;-84
2021/04/10 04:32:31;;;;;;;7.13;4.32;;;4.20;99.90;;;;;;5013319;28;20050;-84
2021/04/10 04:34:58;;;;;;;9.60;4.47;;;4.20;99.90;;;;;;5013332;28;20417;-84
2021/04/10 04:37:25;;;;;;;7.60;4.38;;;4.20;99.90;;;;;;5012251;28;20093;-84
2021/04/10 04:39:51;;;;;;;7.00;3.95;;;4.20;99.90;;;;;;5012223;28;20137;-85
2021/04/10 04:42:18;;;;;;;6.18;4.13;;;4.20;99.90;;;;;;5013395;28;20081;-85
2021/04/10 04:44:44;;;;;;;8.10;4.60;;;4.30;99.90;;;;;;5013652;28;20053;-84
2021/04/10 04:47:10;;;;;;;9.43;4.47;;;4.40;99.90;;;;;;5011528;28;20045;-84
2021/04/10 04:49:37;;;;;;;8.50;4.65;;;4.40;99.90;;;;;;5013343;28;20093;-82
2021/04/10 04:52:05;;;;;;;6.60;4.13;;;4.40;99.90;;;;;;5011654;28;20058;-82
2021/04/10 04:54:31;;;;;;;8.85;4.07;;;4.40;99.90;;;;;;5013265;28;20140;-83
2021/04/10 04:56:57;;;;;;;8.75;4.63;;;4.40;99.90;;;;;;5013534;28;20096;-83
2021/04/10 04:59:23;;;;;;;9.27;4.50;;;4.50;99.90;;;;;;5011972;28;20138;-82
2021/04/10 05:01:50;;;;;;;8.80;4.72;;;4.50;99.90;;;;;;5013134;28;20050;-85
2021/04/10 05:04:17;;;;;;;5.30;4.15;;;4.50;99.90;;;;;;5012084;28;20069;-85
2021/04/10 05:06:43;;;;;;;7.07;4.57;;;4.50;99.90;;;;;;5011863;28;20922;-85
2021/04/10 05:09:09;;;;;;;8.48;5.30;;;4.60;99.90;;;;;;5012233;28;20136;-85
2021/04/10 05:11:36;;;;;;;10.68;5.32;;;4.50;99.90;;;;;;5011824;28;20490;-82
2021/04/10 05:14:03;;;;;;;7.60;5.13;;;4.50;99.90;;;;;;5011829;28;20085;-83
2021/04/10 05:16:30;;;;;;;10.50;5.10;;;4.50;99.90;;;;;;5012043;28;20046;-83
2021/04/10 05:18:56;;;;;;;13.05;4.82;;;4.50;99.90;;;;;;5011671;28;20081;-82
2021/04/10 05:21:23;;;;;;;8.45;4.82;;;4.50;99.90;;;;;;5011869;28;20129;-82
2021/04/10 05:23:50;;;;;;;7.95;4.68;;;4.60;99.90;;;;;;5012854;28;20132;-83
2021/04/10 05:26:16;;;;;;;12.52;4.57;;;4.60;99.90;;;;;;5011742;28;20141;-82
2021/04/10 05:28:42;;;;;;;12.35;5.20;;;4.60;99.90;;;;;;5012862;28;20057;-82
2021/04/10 05:31:09;;;;;;;11.02;5.18;;;4.70;99.90;;;;;;5011839;28;20133;-83
2021/04/10 05:33:35;;;;;;;7.22;4.70;;;4.80;99.90;;;;;;5012620;28;20046;-82
2021/04/10 05:36:02;;;;;;;8.38;4.78;;;4.80;99.90;;;;;;5011384;28;20056;-82
2021/04/10 05:38:28;;;;;;;5.57;4.20;;;4.90;99.90;;;;;;5011674;28;20159;-83
2021/04/10 05:40:54;;;;;;;11.90;7.30;;;5.00;99.90;;;;;;5011834;28;20137;-82
2021/04/10 05:43:21;;;;;;;14.82;9.75;;;5.00;99.90;;;;;;5011717;28;20129;-82
2021/04/10 05:45:48;;;;;;;15.35;10.07;;;5.10;99.90;;;;;;5012752;28;20168;-82
2021/04/10 05:48:15;;;;;;;18.92;10.73;;;5.10;99.90;;;;;;5011359;28;20144;-82
2021/04/10 05:50:41;;;;;;;21.10;12.35;;;5.20;99.90;;;;;;5010633;28;20054;-81
2021/04/10 05:53:07;;;;;;;25.95;14.52;;;5.10;99.90;;;;;;5004785;28;20384;-83
2021/04/10 05:55:34;;;;;;;22.20;13.95;;;5.20;99.90;;;;;;5011655;28;20140;-82
2021/04/10 05:58:00;;;;;;;23.65;10.63;;;5.20;99.90;;;;;;5044861;28;20100;-82
2021/04/10 06:00:27;;;;;;;19.83;10.57;;;5.40;99.90;;;;;;5048243;28;20552;-82
2021/04/10 06:02:54;;;;;;;17.42;9.43;;;5.40;99.90;;;;;;5047861;28;20058;-82
2021/04/10 06:05:22;;;;;;;10.48;7.93;;;5.50;99.90;;;;;;5015111;28;20414;-83
2021/04/10 06:07:49;;;;;;;8.75;5.95;;;5.50;99.90;;;;;;5014956;28;20517;-83
2021/04/10 06:10:17;;;;;;;8.85;6.78;;;5.60;99.90;;;;;;5015081;28;20084;-83
2021/04/10 06:12:43;;;;;;;14.77;6.97;;;5.60;99.90;;;;;;5014729;28;20124;-82
2021/04/10 06:15:11;;;;;;;14.10;7.72;;;5.70;99.90;;;;;;5014879;28;20054;-83
2021/04/10 06:17:38;;;;;;;12.85;6.72;;;5.70;99.90;;;;;;5015749;28;20461;-83
2021/04/10 06:20:07;;;;;;;7.82;6.30;;;5.80;99.90;;;;;;5016007;28;20141;-83
2021/04/10 06:22:36;;;;;;;9.88;4.93;;;5.80;99.90;;;;;;5015916;28;20049;-83
2021/04/10 06:25:05;;;;;;;15.23;6.65;;;5.80;99.90;;;;;;5014807;28;20557;-84
2021/04/10 06:27:32;;;;;;;19.00;6.20;;;5.80;99.90;;;;;;5014691;28;20141;-83
2021/04/10 06:29:58;;;;;;;16.92;5.40;;;5.90;99.90;;;;;;5014834;28;20054;-83
2021/04/10 06:32:25;;;;;;;13.27;5.07;;;6.10;99.90;;;;;;5015910;28;20153;-83
2021/04/10 06:34:51;;;;;;;9.52;5.07;;;6.10;99.90;;;;;;5014390;28;20084;-83
2021/04/10 06:37:17;;;;;;;11.85;5.30;;;6.10;99.90;;;;;;5015616;28;20143;-83
2021/04/10 06:39:44;;;;;;;19.92;9.60;;;6.10;99.90;;;;;;5015590;28;20052;-84
2021/04/10 06:42:11;;;;;;;19.48;13.68;;;6.10;99.90;;;;;;5015106;28;20046;-83
2021/04/10 06:44:38;;;;;;;18.85;12.82;;;6.10;99.90;;;;;;5047440;28;20054;-83
2021/04/10 06:47:05;;;;;;;22.58;14.13;;;6.10;99.90;;;;;;5047165;28;20104;-83
2021/04/10 06:49:32;;;;;;;19.52;10.45;;;6.10;99.90;;;;;;5015648;28;20054;-83
2021/04/10 06:51:59;;;;;;;14.98;10.35;;;6.10;99.90;;;;;;5015163;28;20096;-83
2021/04/10 06:54:34;;;;;;;22.13;12.90;;;6.10;99.90;;;;;;5047237;28;20085;-83
2021/04/10 06:57:13;;;;;;;27.75;17.08;;;6.30;99.90;;;;;;5046703;28;20379;-83
2021/04/10 06:59:49;;;;;;;31.98;16.70;;;6.30;99.90;;;;;;5046842;28;20085;-83
2021/04/10 07:02:16;;;;;;;40.10;21.08;;;6.40;99.90;;;;;;5047067;28;20077;-83
2021/04/10 07:04:42;;;;;;;40.70;21.60;;;6.40;99.90;;;;;;5015049;28;20446;-84
2021/04/10 07:07:11;;;;;;;89.90;42.95;;;6.40;99.90;;;;;;5046506;28;20054;-83
2021/04/10 07:09:37;;;;;;;27.77;12.57;;;6.40;99.90;;;;;;5013362;28;20574;-83
2021/04/10 07:12:06;;;;;;;40.33;17.35;;;6.40;99.90;;;;;;5046553;28;20060;-83
2021/04/10 07:14:32;;;;;;;24.48;14.82;;;6.40;99.90;;;;;;5030341;28;20054;-83
2021/04/10 07:16:59;;;;;;;15.13;7.97;;;6.40;99.90;;;;;;5046503;28;20081;-83
2021/04/10 07:19:27;;;;;;;27.80;13.13;;;6.50;99.90;;;;;;5013712;28;20057;-83
2021/04/10 07:22:05;;;;;;;20.67;11.77;;;6.50;99.90;;;;;;5014510;28;20053;-83
2021/04/10 07:24:50;;;;;;;16.83;11.18;;;6.50;99.90;;;;;;5014670;28;20042;-83
2021/04/10 07:27:25;;;;;;;14.25;7.90;;;6.60;99.90;;;;;;5014849;28;20089;-83
2021/04/10 07:29:59;;;;;;;19.60;11.35;;;6.70;99.90;;;;;;5014467;28;20546;-84
2021/04/10 07:32:38;;;;;;;29.40;12.63;;;6.70;99.90;;;;;;5037536;28;20093;-83
2021/04/10 07:35:17;;;;;;;19.50;10.30;;;6.80;99.90;;;;;;5034584;28;20113;-83
2021/04/10 07:37:50;;;;;;;25.90;16.30;;;6.80;99.90;;;;;;4993840;28;20046;-83
2021/04/10 07:40:27;;;;;;;28.45;15.70;;;6.90;99.90;;;;;;4993513;28;20054;-83
2021/04/10 07:42:59;;;;;;;27.60;17.85;;;7.00;99.90;;;;;;5004878;28;20137;-83
2021/04/10 07:45:33;;;;;;;29.15;18.88;;;7.10;99.90;;;;;;5003720;28;20133;-83
2021/04/10 07:48:04;;;;;;;17.67;13.65;;;7.10;99.90;;;;;;5008102;28;20077;-83
2021/04/10 07:50:33;;;;;;;22.42;11.32;;;7.20;99.90;;;;;;5014264;28;20054;-83
2021/04/10 07:53:24;;;;;;;23.52;10.65;;;7.30;99.90;;;;;;5045797;28;20132;-83
2021/04/10 07:55:52;;;;;;;15.00;9.90;;;7.40;99.90;;;;;;5013006;28;20509;-83
2021/04/10 07:58:32;;;;;;;11.95;8.50;;;7.50;99.90;;;;;;5013033;28;20058;-83
2021/04/10 08:01:04;;;;;;;25.67;12.30;;;7.50;99.90;;;;;;5012901;28;20061;-83
2021/04/10 08:03:40;;;;;;;22.23;10.73;;;7.60;99.90;;;;;;5045697;28;20115;-83
2021/04/10 08:06:09;;;;;;;17.55;10.98;;;7.50;99.90;;;;;;5014208;28;20046;-83
2021/04/10 08:08:53;;;;;;;17.55;10.40;;;7.30;99.90;;;;;;5013944;28;20050;-83
2021/04/10 08:11:51;;;;;;;20.85;11.40;;;7.40;99.90;;;;;;5013906;28;20511;-83
2021/04/10 08:14:17;;;;;;;20.55;12.80;;;7.40;99.90;;;;;;4999684;28;20049;-83
2021/04/10 08:16:48;;;;;;;22.45;12.32;;;7.40;99.90;;;;;;4993025;28;20046;-83
2021/04/10 08:19:16;;;;;;;24.15;12.15;;;7.30;99.90;;;;;;4993179;28;20511;-84
2021/04/10 08:21:49;;;;;;;25.25;13.35;;;7.30;99.90;;;;;;4992051;28;20491;-84
2021/04/10 08:24:21;;;;;;;22.83;14.67;;;7.20;99.90;;;;;;4993000;28;20050;-84
2021/04/10 08:26:53;;;;;;;21.65;13.63;;;7.20;99.90;;;;;;4992880;28;20133;-84
2021/04/10 08:29:21;;;;;;;24.40;14.77;;;7.20;99.90;;;;;;4993137;28;20081;-84
2021/04/10 08:31:47;;;;;;;25.33;14.55;;;7.10;99.90;;;;;;4994115;28;20129;-82
2021/04/10 08:34:14;;;;;;;24.63;13.68;;;7.00;99.90;;;;;;4993979;28;20054;-84
2021/04/10 08:36:43;;;;;;;26.42;12.82;;;7.00;99.90;;;;;;4992848;28;20129;-84
2021/04/10 08:39:10;;;;;;;20.08;12.73;;;7.10;99.90;;;;;;4994090;28;20058;-84
2021/04/10 08:41:38;;;;;;;15.68;11.82;;;7.30;99.90;;;;;;4992788;28;20042;-84
2021/04/10 08:44:07;;;;;;;15.05;10.82;;;7.50;99.90;;;;;;4993775;28;20474;-84
2021/04/10 08:46:36;;;;;;;19.75;10.75;;;7.70;99.90;;;;;;4993868;28;20129;-84
2021/04/10 08:49:03;;;;;;;19.17;11.50;;;7.80;99.90;;;;;;5009471;28;20050;-84
2021/04/10 08:51:33;;;;;;;18.20;10.52;;;7.80;99.90;;;;;;5044998;28;20140;-84
2021/04/10 08:54:01;;;;;;;19.38;9.02;;;7.90;99.90;;;;;;5044991;28;20062;-84
2021/04/10 08:56:28;;;;;;;13.98;9.57;;;7.90;99.90;;;;;;5012141;28;20136;-84
2021/04/10 08:59:13;;;;;;;15.05;9.40;;;8.00;99.90;;;;;;5012241;28;20050;-84
2021/04/10 09:01:42;;;;;;;15.73;9.75;;;7.80;99.90;;;;;;5013330;28;20128;-83
2021/04/10 09:04:11;;;;;;;16.98;9.60;;;8.00;99.90;;;;;;5013054;28;20136;-83
2021/04/10 09:06:40;;;;;;;20.58;10.98;;;8.00;99.90;;;;;;5012149;28;20148;-84
2021/04/10 09:09:15;;;;;;;19.02;12.10;;;7.90;99.90;;;;;;5012165;28;20072;-84
2021/04/10 09:11:43;;;;;;;18.10;11.77;;;7.80;99.90;;;;;;5011926;28;20442;-83
2021/04/10 09:14:11;;;;;;;19.90;12.13;;;7.80;99.90;;;;;;5012773;28;20050;-84
2021/04/10 09:16:48;;;;;;;15.38;11.50;;;7.90;99.90;;;;;;5044938;28;20049;-83
2021/04/10 09:19:20;;;;;;;16.05;11.05;;;8.00;99.90;;;;;;5013196;28;20046;-83
2021/04/10 09:22:00;;;;;;;14.50;10.68;;;8.00;99.90;;;;;;5012952;28;20046;-83
2021/04/10 09:24:31;;;;;;;15.88;11.23;;;8.00;99.90;;;;;;5044900;28;20100;-84
2021/04/10 09:27:00;;;;;;;12.30;9.60;;;8.00;99.90;;;;;;5011730;28;20128;-83
2021/04/10 09:29:29;;;;;;;15.73;11.27;;;8.10;99.90;;;;;;5013018;28;20151;-83
2021/04/10 09:31:59;;;;;;;13.45;10.77;;;8.10;99.90;;;;;;5012768;28;20129;-83
2021/04/10 09:34:45;;;;;;;17.13;10.90;;;8.20;99.90;;;;;;5047806;28;20557;-83
2021/04/10 09:37:24;;;;;;;17.15;10.85;;;8.20;99.90;;;;;;5015699;28;20417;-83
2021/04/10 09:40:20;;;;;;;15.40;10.52;;;8.20;99.90;;;;;;5016909;28;20383;-83
2021/04/10 09:42:50;;;;;;;17.67;11.00;;;8.40;99.90;;;;;;5014490;28;20141;-83
2021/04/10 09:45:24;;;;;;;55.20;35.00;;;8.60;99.90;;;;;;5016739;28;20487;-83
2021/04/10 09:47:57;;;;;;;13.20;10.25;;;8.90;99.90;;;;;;5015372;28;20045;-83
2021/04/10 09:50:26;;;;;;;19.98;12.80;;;8.60;99.90;;;;;;5016498;28;20502;-84
2021/04/10 09:53:06;;;;;;;14.13;11.48;;;8.50;99.90;;;;;;5016394;28;20491;-83
2021/04/10 09:55:36;;;;;;;14.75;11.25;;;8.50;99.90;;;;;;5016499;28;20049;-84
2021/04/10 09:58:08;;;;;;;24.88;21.15;;;8.40;99.90;;;;;;5016313;28;20046;-83
2021/04/10 10:00:39;;;;;;;21.65;13.68;;;8.40;99.90;;;;;;5047957;28;20585;-83
2021/04/10 10:03:07;;;;;;;25.27;18.48;;;8.60;99.90;;;;;;5015197;28;20558;-83
2021/04/10 10:05:42;;;;;;;69.30;48.70;;;8.50;99.90;;;;;;5048143;28;20085;-83
2021/04/10 10:08:11;;;;;;;19.02;15.43;;;8.60;99.90;;;;;;5016114;28;20461;-84
2021/04/10 10:10:45;;;;;;;17.17;12.77;;;8.80;99.90;;;;;;5016029;28;20132;-83
2021/04/10 10:13:20;;;;;;;15.85;11.15;;;9.00;99.90;;;;;;5014921;28;20509;-83
2021/04/10 10:15:49;;;;;;;14.95;11.13;;;9.40;99.90;;;;;;5015050;28;20410;-82
2021/04/10 10:18:26;;;;;;;16.20;11.95;;;9.50;99.90;;;;;;5015742;28;20129;-83
2021/04/10 10:20:53;;;;;;;11.70;10.05;;;9.80;99.90;;;;;;5016032;28;20132;-83
2021/04/10 10:23:19;;;;;;;15.20;11.57;;;9.90;99.90;;;;;;5014696;28;20133;-83
2021/04/10 10:25:45;;;;;;;12.18;10.27;;;9.90;99.90;;;;;;5047555;28;20053;-83
2021/04/10 10:28:16;;;;;;;14.05;10.60;;;10.00;99.90;;;;;;5014546;28;20057;-83
2021/04/10 10:30:43;;;;;;;14.25;10.73;;;9.80;99.90;;;;;;5015841;28;20108;-83
2021/04/10 10:33:09;;;;;;;13.80;11.88;;;10.10;99.90;;;;;;5047700;28;20125;-83
2021/04/10 10:35:35;;;;;;;17.65;11.63;;;10.10;99.90;;;;;;5047182;28;20512;-83
2021/04/10 10:38:06;;;;;;;18.23;12.73;;;9.90;99.90;;;;;;5015782;28;20041;-83
2021/04/10 10:40:34;;;;;;;17.65;12.52;;;9.80;99.90;;;;;;5046583;28;20517;-83
2021/04/10 10:43:02;;;;;;;20.52;14.82;;;9.90;99.90;;;;;;5005992;28;20054;-83
2021/04/10 10:45:41;;;;;;;18.67;14.10;;;9.90;99.90;;;;;;5014731;28;20073;-83
2021/04/10 10:48:20;;;;;;;17.35;13.30;;;9.90;99.90;;;;;;5011440;28;20522;-82
2021/04/10 10:50:48;;;;;;;18.02;14.07;;;9.90;99.90;;;;;;5015665;28;20220;-83
2021/04/10 10:53:20;;;;;;;16.90;13.98;;;10.00;99.90;;;;;;5047009;28;20129;-83
2021/04/10 10:56:00;;;;;;;19.65;15.55;;;10.00;99.90;;;;;;5047019;28;20556;-83
2021/04/10 10:58:39;;;;;;;20.58;16.98;;;9.90;99.90;;;;;;5014048;28;20481;-83
2021/04/10 11:01:26;;;;;;;19.17;16.08;;;10.00;99.90;;;;;;5014944;28;20145;-83
2021/04/10 11:04:00;;;;;;;22.92;18.33;;;10.10;99.90;;;;;;5046078;28;20513;-83
2021/04/10 11:06:30;;;;;;;22.50;18.33;;;9.80;99.90;;;;;;5013879;28;20073;-83
2021/04/10 11:09:04;;;;;;;23.92;17.42;;;9.90;99.90;;;;;;5015081;28;20426;-83
2021/04/10 11:11:37;;;;;;;22.58;18.20;;;10.10;99.90;;;;;;5013712;28;20557;-83
2021/04/10 11:14:04;;;;;;;21.20;17.13;;;10.40;99.90;;;;;;5013911;28;20085;-83
2021/04/10 11:16:31;;;;;;;22.30;17.50;;;10.40;99.90;;;;;;5015001;28;20096;-83
2021/04/10 11:19:00;;;;;;;20.98;17.58;;;10.40;99.90;;;;;;5046687;28;20525;-83
2021/04/10 11:21:26;;;;;;;22.77;17.75;;;10.20;99.90;;;;;;5046459;28;20045;-83
2021/04/10 11:24:04;;;;;;;25.27;18.10;;;9.90;99.90;;;;;;5013533;28;20053;-84
2021/04/10 11:26:54;;;;;;;25.05;18.42;;;9.60;99.90;;;;;;5014775;28;20081;-83
2021/04/10 11:29:30;;;;;;;25.80;18.20;;;9.40;99.90;;;;;;5013684;28;20054;-83
2021/04/10 11:32:16;;;;;;;23.75;18.50;;;9.30;99.90;;;;;;5013158;28;20086;-83
2021/04/10 11:34:53;;;;;;;98.28;54.80;;;9.20;99.90;;;;;;5046311;28;20129;-83
2021/04/10 11:37:28;;;;;;;55.05;33.63;;;9.20;99.90;;;;;;5044734;28;20133;-83
2021/04/10 11:40:03;;;;;;;27.02;20.27;;;9.30;99.90;;;;;;5012231;28;20084;-83
2021/04/10 11:42:34;;;;;;;26.13;19.80;;;9.30;99.90;;;;;;5013174;28;20112;-83
2021/04/10 11:45:22;;;;;;;23.77;19.00;;;9.40;99.90;;;;;;5013328;28;20136;-82
2021/04/10 11:48:18;;;;;;;27.67;20.00;;;9.30;99.90;;;;;;5012931;28;20054;-83
2021/04/10 11:50:58;;;;;;;26.88;22.15;;;9.40;99.90;;;;;;5012018;28;20096;-82
2021/04/10 11:53:27;;;;;;;32.20;24.70;;;9.50;99.90;;;;;;5011793;28;20049;-83
2021/04/10 11:55:56;;;;;;;37.47;31.85;;;9.40;99.90;;;;;;5012841;28;20053;-83
2021/04/10 11:58:36;;;;;;;31.25;22.70;;;9.30;99.90;;;;;;5012779;28;20077;-83
2021/04/10 12:01:08;;;;;;;25.73;21.23;;;9.30;99.90;;;;;;5011609;28;20081;-83
2021/04/10 12:03:54;;;;;;;32.53;22.60;;;9.30;99.90;;;;;;5044531;28;20144;-83
2021/04/10 12:06:31;;;;;;;27.17;24.23;;;9.20;99.90;;;;;;5011729;28;20504;-83
2021/04/10 12:09:04;;;;;;;30.83;25.75;;;9.10;99.90;;;;;;5044563;28;20132;-83
2021/04/10 12:11:30;;;;;;;35.33;25.45;;;9.20;99.90;;;;;;5012513;28;20140;-83
2021/04/10 12:13:56;;;;;;;26.58;20.95;;;9.30;99.90;;;;;;5011368;28;20049;-83
2021/04/10 12:16:22;;;;;;;30.75;22.73;;;9.40;99.90;;;;;;5011538;28;20128;-82
2021/04/10 12:18:49;;;;;;;28.17;22.30;;;9.50;99.90;;;;;;5011191;28;20141;-83
2021/04/10 12:21:16;;;;;;;31.15;23.65;;;9.40;99.90;;;;;;5012696;28;20046;-83
2021/04/10 12:23:42;;;;;;;44.80;25.58;;;9.30;99.90;;;;;;5011137;28;20049;-82
2021/04/10 12:26:08;;;;;;;34.03;24.67;;;9.20;99.90;;;;;;5012475;28;20053;-83
2021/04/10 12:28:35;;;;;;;30.80;24.67;;;9.10;99.90;;;;;;5012734;28;20057;-83
2021/04/10 12:31:03;;;;;;;32.80;25.08;;;9.10;99.90;;;;;;5044257;28;20057;-83
2021/04/10 12:33:30;;;;;;;35.22;27.05;;;9.00;99.90;;;;;;5012250;28;20096;-83
2021/04/10 12:35:57;;;;;;;38.75;27.23;;;9.00;99.90;;;;;;5043943;28;20490;-83
2021/04/10 12:38:24;;;;;;;47.30;34.10;;;9.00;99.90;;;;;;5043907;28;20053;-83
2021/04/10 12:40:51;;;;;;;34.92;27.38;;;9.00;99.90;;;;;;5012197;28;20049;-82
2021/04/10 12:43:17;;;;;;;39.42;28.60;;;9.00;99.90;;;;;;5011166;28;20104;-83
2021/04/10 12:45:43;;;;;;;30.73;25.65;;;9.10;99.90;;;;;;5012330;28;20050;-83
2021/04/10 12:48:09;;;;;;;35.80;26.55;;;9.30;99.90;;;;;;5043687;28;20570;-83
2021/04/10 12:50:36;;;;;;;38.35;25.67;;;9.40;99.90;;;;;;5043836;28;20140;-83
2021/04/10 12:53:02;;;;;;;34.85;26.40;;;9.30;99.90;;;;;;5043439;28;20053;-83
2021/04/10 12:55:29;;;;;;;37.80;25.55;;;9.30;99.90;;;;;;5043876;28;20065;-83
2021/04/10 12:57:55;;;;;;;33.88;23.92;;;9.30;99.90;;;;;;5010739;28;20125;-83
2021/04/10 13:00:22;;;;;;;30.52;24.05;;;9.30;99.90;;;;;;5012027;28;20148;-83